createdAt,value
2018-08-02T00:01:08.608Z,0.00
2018-08-02T00:02:08.520Z,0.00
2018-08-02T00:04:01.477Z,0.00
2018-08-02T00:05:01.362Z,0.00
2018-08-02T00:06:54.313Z,0.00
2018-08-02T00:07:54.227Z,0.00
2018-08-02T00:09:47.086Z,0.00
2018-08-02T00:10:46.965Z,0.00
2018-08-02T00:12:39.821Z,0.00
2018-08-02T00:13:39.725Z,0.00
2018-08-02T00:15:32.579Z,0.00
2018-08-02T00:16:32.478Z,0.00
2018-08-02T00:18:25.358Z,0.00
2018-08-02T00:19:25.215Z,0.00
2018-08-02T00:21:18.599Z,0.00
2018-08-02T00:22:18.481Z,0.00
2018-08-02T00:24:11.818Z,0.00
2018-08-02T00:25:11.746Z,0.00
2018-08-02T00:27:05.616Z,0.00
2018-08-02T00:28:05.004Z,0.00
2018-08-02T00:29:58.632Z,0.00
2018-08-02T00:30:58.460Z,0.00
2018-08-02T00:32:51.312Z,0.00
2018-08-02T00:33:51.213Z,0.00
2018-08-02T00:35:44.070Z,0.00
2018-08-02T00:36:43.978Z,0.00
2018-08-02T00:38:36.825Z,0.00
2018-08-02T00:39:36.722Z,0.00
2018-08-02T00:41:29.602Z,0.00
2018-08-02T00:42:29.463Z,0.00
2018-08-02T00:44:22.328Z,0.00
2018-08-02T00:45:22.213Z,0.00
2018-08-02T00:47:15.070Z,0.00
2018-08-02T00:48:14.963Z,0.00
2018-08-02T00:50:08.318Z,0.00
2018-08-02T00:51:07.753Z,0.00
2018-08-02T00:53:00.566Z,0.00
2018-08-02T00:54:00.453Z,0.00
2018-08-02T00:55:53.327Z,0.00
2018-08-02T00:56:53.204Z,0.00
2018-08-02T00:58:46.084Z,0.00
2018-08-02T00:59:45.958Z,0.00
2018-08-02T01:01:38.788Z,0.00
2018-08-02T01:02:38.715Z,0.00
2018-08-02T01:04:31.554Z,0.00
2018-08-02T01:05:31.457Z,0.00
2018-08-02T01:07:24.306Z,0.00
2018-08-02T01:08:24.203Z,0.00
2018-08-02T01:10:17.077Z,0.00
2018-08-02T01:11:16.968Z,0.00
2018-08-02T01:13:09.791Z,0.00
2018-08-02T01:14:09.705Z,0.00
2018-08-02T01:16:02.566Z,0.00
2018-08-02T01:17:02.445Z,0.00
2018-08-02T01:18:55.334Z,0.00
2018-08-02T01:19:55.199Z,0.00
2018-08-02T01:21:48.036Z,0.00
2018-08-02T01:22:47.951Z,0.00
2018-08-02T01:24:40.796Z,0.00
2018-08-02T01:25:40.710Z,0.00
2018-08-02T01:27:33.538Z,0.00
2018-08-02T01:28:33.446Z,0.00
2018-08-02T01:30:26.304Z,0.00
2018-08-02T01:31:26.222Z,0.00
2018-08-02T01:33:19.253Z,0.00
2018-08-02T01:34:19.150Z,0.00
2018-08-02T01:36:12.005Z,0.00
2018-08-02T01:37:11.898Z,0.00
2018-08-02T01:39:04.745Z,0.00
2018-08-02T01:40:04.650Z,0.00
2018-08-02T01:41:57.505Z,0.00
2018-08-02T01:42:57.402Z,0.00
2018-08-02T01:44:50.268Z,0.00
2018-08-02T01:45:50.169Z,0.00
2018-08-02T01:47:43.017Z,0.00
2018-08-02T01:48:42.902Z,0.00
2018-08-02T01:50:35.744Z,0.00
2018-08-02T01:51:35.657Z,0.00
2018-08-02T01:53:28.498Z,0.00
2018-08-02T01:54:28.416Z,0.00
2018-08-02T01:56:21.249Z,0.00
2018-08-02T01:57:21.171Z,0.00
2018-08-02T01:59:14.923Z,0.00
2018-08-02T02:00:14.840Z,0.00
2018-08-02T02:02:07.664Z,0.00
2018-08-02T02:03:07.577Z,0.00
2018-08-02T02:05:00.424Z,0.00
2018-08-02T02:06:00.317Z,0.00
2018-08-02T02:07:53.205Z,0.00
2018-08-02T02:08:53.067Z,0.00
2018-08-02T02:10:45.903Z,0.00
2018-08-02T02:11:45.815Z,0.00
2018-08-02T02:13:38.784Z,0.00
2018-08-02T02:14:38.677Z,0.00
2018-08-02T02:16:31.512Z,0.00
2018-08-02T02:17:31.430Z,0.00
2018-08-02T02:19:24.299Z,0.00
2018-08-02T02:20:24.167Z,0.00
2018-08-02T02:22:17.005Z,0.00
2018-08-02T02:23:16.916Z,0.00
2018-08-02T02:25:10.289Z,0.00
2018-08-02T02:26:10.180Z,0.00
2018-08-02T02:28:03.039Z,0.00
2018-08-02T02:29:02.925Z,0.00
2018-08-02T02:30:55.886Z,0.00
2018-08-02T02:31:55.800Z,0.00
2018-08-02T02:33:48.625Z,0.00
2018-08-02T02:34:48.530Z,0.00
2018-08-02T02:36:41.390Z,0.00
2018-08-02T02:37:41.280Z,0.00
2018-08-02T02:39:34.215Z,0.00
2018-08-02T02:40:34.028Z,0.00
2018-08-02T02:42:26.887Z,0.00
2018-08-02T02:43:26.783Z,0.00
2018-08-02T02:45:19.631Z,0.00
2018-08-02T02:46:19.549Z,0.00
2018-08-02T02:48:12.365Z,0.00
2018-08-02T02:49:12.288Z,0.00
2018-08-02T02:51:05.254Z,0.00
2018-08-02T02:52:05.128Z,0.00
2018-08-02T02:53:57.984Z,0.00
2018-08-02T02:54:57.879Z,0.00
2018-08-02T02:56:50.737Z,0.00
2018-08-02T02:57:50.632Z,0.00
2018-08-02T02:59:43.466Z,0.00
2018-08-02T03:00:43.379Z,0.00
2018-08-02T03:02:36.239Z,0.00
2018-08-02T03:03:36.123Z,0.00
2018-08-02T03:05:28.995Z,0.00
2018-08-02T03:06:28.879Z,0.00
2018-08-02T03:08:21.737Z,0.00
2018-08-02T03:09:21.623Z,0.00
2018-08-02T03:11:14.466Z,0.00
2018-08-02T03:12:14.372Z,0.00
2018-08-02T03:14:07.237Z,0.00
2018-08-02T03:15:07.127Z,0.00
2018-08-02T03:16:59.993Z,0.00
2018-08-02T03:17:59.892Z,0.00
2018-08-02T03:19:52.736Z,0.00
2018-08-02T03:20:52.631Z,0.00
2018-08-02T03:22:45.480Z,0.00
2018-08-02T03:23:45.380Z,0.00
2018-08-02T03:25:38.213Z,4.00
2018-08-02T03:26:38.144Z,4.00
2018-08-02T03:28:30.998Z,4.00
2018-08-02T03:29:30.878Z,0.00
2018-08-02T03:31:23.710Z,4.00
2018-08-02T03:32:23.620Z,4.00
2018-08-02T03:34:16.505Z,8.00
2018-08-02T03:35:16.379Z,4.00
2018-08-02T03:37:09.209Z,8.00
2018-08-02T03:38:09.117Z,8.00
2018-08-02T03:40:01.979Z,8.00
2018-08-02T03:41:01.870Z,8.00
2018-08-02T03:42:54.712Z,12.00
2018-08-02T03:43:54.621Z,12.00
2018-08-02T03:45:47.607Z,12.00
2018-08-02T03:46:47.482Z,12.00
2018-08-02T03:48:40.333Z,12.00
2018-08-02T03:49:40.222Z,16.00
2018-08-02T03:51:33.079Z,16.00
2018-08-02T03:52:32.982Z,12.00
2018-08-02T03:54:26.332Z,16.00
2018-08-02T03:55:26.245Z,20.00
2018-08-02T03:57:19.093Z,20.00
2018-08-02T03:58:18.980Z,24.00
2018-08-02T04:00:12.350Z,24.00
2018-08-02T04:01:12.247Z,28.00
2018-08-02T04:03:05.103Z,36.00
2018-08-02T04:04:05.013Z,36.00
2018-08-02T04:05:57.879Z,44.00
2018-08-02T04:06:57.808Z,52.00
2018-08-02T04:08:50.606Z,64.00
2018-08-02T04:09:50.498Z,64.00
2018-08-02T04:11:43.358Z,80.00
2018-08-02T04:12:43.241Z,84.00
2018-08-02T04:14:36.086Z,96.00
2018-08-02T04:15:36.016Z,100.00
2018-08-02T04:17:28.903Z,116.00
2018-08-02T04:18:28.753Z,120.00
2018-08-02T04:20:21.630Z,140.00
2018-08-02T04:21:21.488Z,148.00
2018-08-02T04:23:14.366Z,156.00
2018-08-02T04:24:14.254Z,160.00
2018-08-02T04:26:07.086Z,164.00
2018-08-02T04:27:06.998Z,168.00
2018-08-02T04:28:59.842Z,168.00
2018-08-02T04:29:59.738Z,168.00
2018-08-02T04:31:52.588Z,168.00
2018-08-02T04:32:52.502Z,172.00
2018-08-02T04:34:45.353Z,176.00
2018-08-02T04:35:45.257Z,176.00
2018-08-02T04:37:38.083Z,184.00
2018-08-02T04:38:37.991Z,188.00
2018-08-02T04:40:31.362Z,196.00
2018-08-02T04:41:31.249Z,196.00
2018-08-02T04:43:24.502Z,200.00
2018-08-02T04:44:24.409Z,196.00
2018-08-02T04:46:17.286Z,196.00
2018-08-02T04:47:17.170Z,192.00
2018-08-02T04:49:09.998Z,188.00
2018-08-02T04:50:09.923Z,188.00
2018-08-02T04:52:04.301Z,188.00
2018-08-02T04:53:04.205Z,188.00
2018-08-02T04:54:57.483Z,184.00
2018-08-02T04:55:57.352Z,180.00
2018-08-02T04:57:51.761Z,172.00
2018-08-02T04:58:51.665Z,172.00
2018-08-02T05:00:45.028Z,168.00
2018-08-02T05:01:44.896Z,168.00
2018-08-02T05:03:37.739Z,164.00
2018-08-02T05:04:37.646Z,164.00
2018-08-02T05:06:31.043Z,160.00
2018-08-02T05:07:30.905Z,160.00
2018-08-02T05:09:23.753Z,156.00
2018-08-02T05:10:23.662Z,152.00
2018-08-02T05:12:19.500Z,144.00
2018-08-02T05:13:19.381Z,144.00
2018-08-02T05:15:12.251Z,140.00
2018-08-02T05:16:12.127Z,140.00
2018-08-02T05:18:04.975Z,140.00
2018-08-02T05:19:04.873Z,132.00
2018-08-02T05:20:57.780Z,124.00
2018-08-02T05:21:57.631Z,128.00
2018-08-02T05:23:50.472Z,124.00
2018-08-02T05:24:50.378Z,124.00
2018-08-02T05:26:43.238Z,124.00
2018-08-02T05:27:43.137Z,124.00
2018-08-02T05:29:37.498Z,136.00
2018-08-02T05:30:37.413Z,148.00
2018-08-02T05:32:30.302Z,172.00
2018-08-02T05:33:30.176Z,196.00
2018-08-02T05:35:24.724Z,280.00
2018-08-02T05:36:24.869Z,336.00
2018-08-02T05:38:17.300Z,424.00
2018-08-02T05:39:17.204Z,464.00
2018-08-02T05:41:10.065Z,512.00
2018-08-02T05:42:10.050Z,524.00
2018-08-02T05:44:03.371Z,548.00
2018-08-02T05:45:03.213Z,564.00
2018-08-02T05:46:59.037Z,612.00
2018-08-02T05:47:58.959Z,644.00
2018-08-02T05:49:51.855Z,692.00
2018-08-02T05:50:51.669Z,708.00
2018-08-02T05:52:44.947Z,724.00
2018-08-02T05:53:44.847Z,728.00
2018-08-02T05:55:37.696Z,744.00
2018-08-02T05:56:37.597Z,752.00
2018-08-02T05:58:30.425Z,776.00
2018-08-02T05:59:30.338Z,792.00
2018-08-02T06:01:23.206Z,808.00
2018-08-02T06:02:23.088Z,812.00
2018-08-02T06:04:15.933Z,812.00
2018-08-02T06:05:15.882Z,808.00
2018-08-02T06:07:08.690Z,792.00
2018-08-02T06:08:08.592Z,792.00
2018-08-02T06:10:01.472Z,804.00
2018-08-02T06:11:01.359Z,820.00
2018-08-02T06:12:54.189Z,868.00
2018-08-02T06:13:54.096Z,900.00
2018-08-02T06:15:46.942Z,928.00
2018-08-02T06:16:46.858Z,936.00
2018-08-02T06:18:39.674Z,980.00
2018-08-02T06:19:39.581Z,1016.00
2018-08-02T06:21:32.438Z,1096.00
2018-08-02T06:22:32.329Z,1132.00
2018-08-02T06:24:25.165Z,1192.00
2018-08-02T06:25:25.078Z,1224.00
2018-08-02T06:27:17.962Z,1292.00
2018-08-02T06:28:17.857Z,1336.00
2018-08-02T06:30:10.723Z,1408.00
2018-08-02T06:31:10.583Z,1444.00
2018-08-02T06:33:03.429Z,1516.00
2018-08-02T06:34:03.338Z,1532.00
2018-08-02T06:35:56.195Z,1556.00
2018-08-02T06:36:56.093Z,1572.00
2018-08-02T06:38:48.934Z,1628.00
2018-08-02T06:39:48.845Z,1672.00
2018-08-02T06:41:41.679Z,1944.00
2018-08-02T06:42:41.586Z,2244.00
2018-08-02T06:44:34.428Z,2060.00
2018-08-02T06:45:34.329Z,1948.00
2018-08-02T06:47:27.206Z,1848.00
2018-08-02T06:48:27.125Z,1808.00
2018-08-02T06:50:19.942Z,1760.00
2018-08-02T06:51:19.824Z,1708.00
2018-08-02T06:53:12.715Z,1596.00
2018-08-02T06:54:12.586Z,1564.00
2018-08-02T06:56:05.419Z,1536.00
2018-08-02T06:57:05.329Z,1568.00
2018-08-02T06:58:58.614Z,1524.00
2018-08-02T06:59:58.486Z,1532.00
2018-08-02T07:01:51.343Z,1776.00
2018-08-02T07:02:51.232Z,1708.00
2018-08-02T07:04:44.097Z,1708.00
2018-08-02T07:05:43.978Z,2196.00
2018-08-02T07:07:36.844Z,2236.00
2018-08-02T07:08:36.769Z,2140.00
2018-08-02T07:10:29.598Z,1868.00
2018-08-02T07:11:29.486Z,2068.00
2018-08-02T07:13:22.328Z,2368.00
2018-08-02T07:14:22.246Z,2296.00
2018-08-02T07:16:15.088Z,1996.00
2018-08-02T07:17:14.980Z,2480.00
2018-08-02T07:19:07.858Z,2312.00
2018-08-02T07:20:07.765Z,1868.00
2018-08-02T07:22:00.587Z,1704.00
2018-08-02T07:23:00.534Z,1700.00
2018-08-02T07:24:53.354Z,2200.00
2018-08-02T07:25:53.236Z,1888.00
2018-08-02T07:27:46.115Z,1804.00
2018-08-02T07:28:45.978Z,1844.00
2018-08-02T07:30:38.836Z,2540.00
2018-08-02T07:31:38.734Z,2540.00
2018-08-02T07:33:31.606Z,2508.00
2018-08-02T07:34:31.514Z,2496.00
2018-08-02T07:36:24.353Z,2496.00
2018-08-02T07:37:24.256Z,2512.00
2018-08-02T07:39:17.134Z,2584.00
2018-08-02T07:40:17.002Z,2632.00
2018-08-02T07:42:09.845Z,2700.00
2018-08-02T07:43:09.860Z,2720.00
2018-08-02T07:45:02.569Z,2720.00
2018-08-02T07:46:02.512Z,2720.00
2018-08-02T07:47:55.345Z,2736.00
2018-08-02T07:48:55.275Z,2736.00
2018-08-02T07:50:49.020Z,2760.00
2018-08-02T07:51:48.924Z,2776.00
2018-08-02T07:53:42.271Z,2744.00
2018-08-02T07:54:42.164Z,2724.00
2018-08-02T07:56:36.464Z,2692.00
2018-08-02T07:57:36.367Z,2684.00
2018-08-02T07:59:29.196Z,2688.00
2018-08-02T08:00:29.116Z,2680.00
2018-08-02T08:02:21.982Z,2700.00
2018-08-02T08:03:21.859Z,2704.00
2018-08-02T08:05:14.714Z,2728.00
2018-08-02T08:06:14.621Z,2744.00
2018-08-02T08:08:07.469Z,2772.00
2018-08-02T08:09:07.341Z,2792.00
2018-08-02T08:11:00.242Z,2828.00
2018-08-02T08:12:00.123Z,2844.00
2018-08-02T08:13:52.943Z,2880.00
2018-08-02T08:14:52.838Z,2912.00
2018-08-02T08:16:45.718Z,2948.00
2018-08-02T08:17:45.598Z,2976.00
2018-08-02T08:19:38.460Z,3024.00
2018-08-02T08:20:38.349Z,3048.00
2018-08-02T08:22:31.649Z,3080.00
2018-08-02T08:23:31.536Z,3092.00
2018-08-02T08:25:24.765Z,3112.00
2018-08-02T08:26:24.705Z,3124.00
2018-08-02T08:28:17.513Z,3144.00
2018-08-02T08:29:17.498Z,3164.00
2018-08-02T08:31:10.662Z,3188.00
2018-08-02T08:32:10.629Z,3192.00
2018-08-02T08:34:03.421Z,3212.00
2018-08-02T08:35:03.349Z,3212.00
2018-08-02T08:36:56.181Z,3224.00
2018-08-02T08:37:56.100Z,3236.00
2018-08-02T08:39:48.956Z,3248.00
2018-08-02T08:40:48.850Z,3256.00
2018-08-02T08:42:41.660Z,3272.00
2018-08-02T08:43:41.585Z,3276.00
2018-08-02T08:45:34.855Z,3288.00
2018-08-02T08:46:34.751Z,3308.00
2018-08-02T08:48:27.611Z,3316.00
2018-08-02T08:49:27.490Z,3320.00
2018-08-02T08:51:20.322Z,3328.00
2018-08-02T08:52:20.305Z,3340.00
2018-08-02T08:54:13.115Z,3352.00
2018-08-02T08:55:12.990Z,3364.00
2018-08-02T08:57:05.833Z,3376.00
2018-08-02T08:58:05.734Z,3384.00
2018-08-02T08:59:58.615Z,3384.00
2018-08-02T09:00:58.508Z,3388.00
2018-08-02T09:02:51.329Z,3400.00
2018-08-02T09:03:51.245Z,3408.00
2018-08-02T09:05:44.077Z,3440.00
2018-08-02T09:06:43.986Z,3444.00
2018-08-02T09:08:36.835Z,3448.00
2018-08-02T09:09:36.730Z,3464.00
2018-08-02T09:11:29.591Z,3480.00
2018-08-02T09:12:29.490Z,3492.00
2018-08-02T09:14:22.849Z,3436.00
2018-08-02T09:15:22.741Z,3544.00
2018-08-02T09:17:15.622Z,3564.00
2018-08-02T09:18:15.504Z,3568.00
2018-08-02T09:20:08.356Z,3592.00
2018-08-02T09:21:08.236Z,3592.00
2018-08-02T09:23:01.077Z,3604.00
2018-08-02T09:24:00.993Z,3628.00
2018-08-02T09:25:53.858Z,3624.00
2018-08-02T09:26:53.779Z,3636.00
2018-08-02T09:28:46.596Z,3672.00
2018-08-02T09:29:46.505Z,3652.00
2018-08-02T09:31:39.318Z,3692.00
2018-08-02T09:32:39.419Z,3692.00
2018-08-02T09:34:32.089Z,3720.00
2018-08-02T09:35:31.988Z,3732.00
2018-08-02T09:37:24.829Z,3748.00
2018-08-02T09:38:24.741Z,3768.00
2018-08-02T09:40:17.580Z,3736.00
2018-08-02T09:41:17.507Z,3740.00
2018-08-02T09:43:10.331Z,3756.00
2018-08-02T09:44:10.233Z,3772.00
2018-08-02T09:46:03.102Z,3784.00
2018-08-02T09:47:03.104Z,3796.00
2018-08-02T09:48:55.830Z,3796.00
2018-08-02T09:49:55.732Z,3848.00
2018-08-02T09:51:48.583Z,3864.00
2018-08-02T09:52:48.493Z,3868.00
2018-08-02T09:54:41.847Z,3888.00
2018-08-02T09:55:41.771Z,3884.00
2018-08-02T09:57:34.572Z,3896.00
2018-08-02T09:58:34.504Z,3908.00
2018-08-02T10:00:27.339Z,3908.00
2018-08-02T10:01:27.258Z,3924.00
2018-08-02T10:03:20.085Z,3940.00
2018-08-02T10:04:20.010Z,3948.00
2018-08-02T10:06:12.851Z,3960.00
2018-08-02T10:07:12.739Z,3956.00
2018-08-02T10:09:06.134Z,3952.00
2018-08-02T10:10:05.915Z,3936.00
2018-08-02T10:11:58.734Z,3972.00
2018-08-02T10:12:58.656Z,3968.00
2018-08-02T10:14:51.510Z,3996.00
2018-08-02T10:15:51.423Z,3992.00
2018-08-02T10:17:44.282Z,4000.00
2018-08-02T10:18:44.165Z,4004.00
2018-08-02T10:20:37.006Z,4012.00
2018-08-02T10:21:36.905Z,4012.00
2018-08-02T10:23:29.769Z,4012.00
2018-08-02T10:24:29.655Z,4016.00
2018-08-02T10:26:26.747Z,4008.00
2018-08-02T10:27:26.863Z,4036.00
2018-08-02T10:29:20.528Z,4024.00
2018-08-02T10:30:20.314Z,4016.00
2018-08-02T10:32:14.124Z,4028.00
2018-08-02T10:33:14.063Z,4040.00
2018-08-02T10:35:06.889Z,4056.00
2018-08-02T10:36:06.799Z,4064.00
2018-08-02T10:38:00.163Z,4064.00
2018-08-02T10:39:00.057Z,4068.00
2018-08-02T10:40:52.931Z,4056.00
2018-08-02T10:41:52.810Z,4060.00
2018-08-02T10:43:45.694Z,4072.00
2018-08-02T10:44:45.550Z,4076.00
2018-08-02T10:46:39.345Z,4008.00
2018-08-02T10:47:39.234Z,3996.00
2018-08-02T10:49:32.597Z,3972.00
2018-08-02T10:50:31.972Z,4032.00
2018-08-02T10:52:24.847Z,4048.00
2018-08-02T10:53:24.721Z,4124.00
2018-08-02T10:55:17.573Z,4144.00
2018-08-02T10:56:17.564Z,4140.00
2018-08-02T10:58:10.327Z,4140.00
2018-08-02T10:59:10.245Z,4148.00
2018-08-02T11:01:03.072Z,4172.00
2018-08-02T11:02:03.015Z,4176.00
2018-08-02T11:03:55.833Z,4156.00
2018-08-02T11:04:55.722Z,4152.00
2018-08-02T11:06:48.598Z,4160.00
2018-08-02T11:07:48.468Z,4144.00
2018-08-02T11:09:41.355Z,4116.00
2018-08-02T11:10:41.231Z,4120.00
2018-08-02T11:12:34.118Z,4052.00
2018-08-02T11:13:33.989Z,4060.00
2018-08-02T11:15:26.818Z,4072.00
2018-08-02T11:16:26.735Z,4072.00
2018-08-02T11:18:19.574Z,4100.00
2018-08-02T11:19:19.471Z,4120.00
2018-08-02T11:21:12.321Z,4124.00
2018-08-02T11:22:12.218Z,4140.00
2018-08-02T11:24:05.068Z,3992.00
2018-08-02T11:25:04.987Z,3968.00
2018-08-02T11:26:57.822Z,4016.00
2018-08-02T11:27:57.751Z,4068.00
2018-08-02T11:29:50.562Z,4060.00
2018-08-02T11:30:50.468Z,4064.00
2018-08-02T11:32:43.296Z,4080.00
2018-08-02T11:33:43.230Z,4072.00
2018-08-02T11:35:36.058Z,4072.00
2018-08-02T11:36:35.962Z,4084.00
2018-08-02T11:38:28.805Z,4068.00
2018-08-02T11:39:28.722Z,4020.00
2018-08-02T11:41:21.554Z,4020.00
2018-08-02T11:42:21.461Z,4092.00
2018-08-02T11:44:14.314Z,4036.00
2018-08-02T11:45:14.215Z,3964.00
2018-08-02T11:47:07.063Z,3892.00
2018-08-02T11:48:06.964Z,3840.00
2018-08-02T11:49:59.812Z,4032.00
2018-08-02T11:50:59.787Z,2920.00
2018-08-02T11:52:52.562Z,2424.00
2018-08-02T11:53:52.525Z,2460.00
2018-08-02T11:55:46.743Z,3520.00
2018-08-02T11:56:45.814Z,3588.00
2018-08-02T11:58:39.087Z,4368.00
2018-08-02T11:59:38.511Z,4356.00
2018-08-02T12:01:31.328Z,4304.00
2018-08-02T12:02:31.256Z,4244.00
2018-08-02T12:04:24.061Z,4108.00
2018-08-02T12:05:23.984Z,3920.00
2018-08-02T12:07:16.870Z,3784.00
2018-08-02T12:08:16.824Z,3880.00
2018-08-02T12:10:09.568Z,3992.00
2018-08-02T12:11:09.513Z,3488.00
2018-08-02T12:13:02.317Z,3088.00
2018-08-02T12:14:02.248Z,3556.00
2018-08-02T12:15:55.074Z,4168.00
2018-08-02T12:16:54.999Z,4136.00
2018-08-02T12:18:47.900Z,3996.00
2018-08-02T12:19:47.759Z,3984.00
2018-08-02T12:21:40.576Z,3940.00
2018-08-02T12:22:40.477Z,3736.00
2018-08-02T12:24:33.319Z,3728.00
2018-08-02T12:25:33.222Z,3772.00
2018-08-02T12:27:26.069Z,3876.00
2018-08-02T12:28:25.980Z,3836.00
2018-08-02T12:30:18.829Z,3920.00
2018-08-02T12:31:18.737Z,3968.00
2018-08-02T12:33:11.574Z,3992.00
2018-08-02T12:34:11.476Z,4004.00
2018-08-02T12:36:04.317Z,3984.00
2018-08-02T12:37:04.231Z,3996.00
2018-08-02T12:38:57.582Z,4008.00
2018-08-02T12:39:57.516Z,4020.00
2018-08-02T12:41:50.763Z,4012.00
2018-08-02T12:42:50.666Z,4004.00
2018-08-02T12:44:43.473Z,3984.00
2018-08-02T12:45:43.421Z,3972.00
2018-08-02T12:47:36.249Z,4020.00
2018-08-02T12:48:36.155Z,4032.00
2018-08-02T12:50:29.004Z,3972.00
2018-08-02T12:51:28.886Z,3968.00
2018-08-02T12:53:21.754Z,3960.00
2018-08-02T12:54:21.648Z,3956.00
2018-08-02T12:56:14.521Z,3988.00
2018-08-02T12:57:14.423Z,4020.00
2018-08-02T12:59:07.250Z,4040.00
2018-08-02T13:00:07.145Z,4032.00
2018-08-02T13:02:00.487Z,3992.00
2018-08-02T13:03:00.393Z,4032.00
2018-08-02T13:04:53.233Z,4064.00
2018-08-02T13:05:53.161Z,4076.00
2018-08-02T13:07:45.987Z,4120.00
2018-08-02T13:08:45.900Z,4128.00
2018-08-02T13:10:38.863Z,4180.00
2018-08-02T13:11:38.650Z,4176.00
2018-08-02T13:13:31.501Z,4148.00
2018-08-02T13:14:31.586Z,4128.00
2018-08-02T13:16:24.267Z,4124.00
2018-08-02T13:17:24.148Z,4128.00
2018-08-02T13:19:17.018Z,4124.00
2018-08-02T13:20:17.074Z,4156.00
2018-08-02T13:22:09.758Z,4228.00
2018-08-02T13:23:09.664Z,4096.00
2018-08-02T13:25:02.501Z,2852.00
2018-08-02T13:26:02.389Z,2992.00
2018-08-02T13:27:55.240Z,4420.00
2018-08-02T13:28:55.152Z,4412.00
2018-08-02T13:30:48.052Z,4380.00
2018-08-02T13:31:48.020Z,4372.00
2018-08-02T13:33:40.749Z,4408.00
2018-08-02T13:34:40.683Z,4420.00
2018-08-02T13:36:33.494Z,4372.00
2018-08-02T13:37:33.431Z,4144.00
2018-08-02T13:39:26.234Z,4396.00
2018-08-02T13:40:26.137Z,4440.00
2018-08-02T13:42:19.020Z,4560.00
2018-08-02T13:43:18.901Z,4572.00
2018-08-02T13:45:11.738Z,4532.00
2018-08-02T13:46:11.651Z,4464.00
2018-08-02T13:48:04.520Z,4712.00
2018-08-02T13:49:04.420Z,4748.00
2018-08-02T13:50:57.222Z,4728.00
2018-08-02T13:51:57.142Z,4708.00
2018-08-02T13:53:50.003Z,4548.00
2018-08-02T13:54:49.896Z,4600.00
2018-08-02T13:56:42.732Z,4692.00
2018-08-02T13:57:42.700Z,4696.00
2018-08-02T13:59:35.727Z,4704.00
2018-08-02T14:00:35.444Z,4720.00
2018-08-02T14:02:28.283Z,4680.00
2018-08-02T14:03:28.139Z,4412.00
2018-08-02T14:05:24.835Z,4696.00
2018-08-02T14:06:24.631Z,4672.00
2018-08-02T14:08:18.375Z,3836.00
2018-08-02T14:09:18.268Z,3560.00
2018-08-02T14:11:11.121Z,3652.00
2018-08-02T14:12:11.013Z,3672.00
2018-08-02T14:14:03.850Z,4164.00
2018-08-02T14:15:03.746Z,4068.00
2018-08-02T14:16:57.927Z,4644.00
2018-08-02T14:17:56.511Z,4736.00
2018-08-02T14:19:49.325Z,4820.00
2018-08-02T14:20:49.292Z,4836.00
2018-08-02T14:22:42.162Z,4864.00
2018-08-02T14:23:42.003Z,4860.00
2018-08-02T14:25:34.822Z,4840.00
2018-08-02T14:26:34.747Z,4836.00
2018-08-02T14:28:27.593Z,4868.00
2018-08-02T14:29:27.500Z,4892.00
2018-08-02T14:31:20.391Z,4968.00
2018-08-02T14:32:20.240Z,4968.00
2018-08-02T14:34:13.108Z,4964.00
2018-08-02T14:35:13.029Z,4944.00
2018-08-02T14:37:05.913Z,5024.00
2018-08-02T14:38:05.744Z,5076.00
2018-08-02T14:39:58.688Z,5072.00
2018-08-02T14:40:58.595Z,5044.00
2018-08-02T14:42:51.529Z,5024.00
2018-08-02T14:43:51.354Z,5068.00
2018-08-02T14:45:44.238Z,5184.00
2018-08-02T14:46:44.132Z,5256.00
2018-08-02T14:48:36.965Z,5368.00
2018-08-02T14:49:36.841Z,5328.00
2018-08-02T14:51:29.711Z,5228.00
2018-08-02T14:52:29.604Z,5192.00
2018-08-02T14:54:22.504Z,5240.00
2018-08-02T14:55:22.381Z,5244.00
2018-08-02T14:57:15.413Z,5248.00
2018-08-02T14:58:15.189Z,5284.00
2018-08-02T15:00:08.042Z,5216.00
2018-08-02T15:01:07.954Z,5168.00
2018-08-02T15:03:00.814Z,5044.00
2018-08-02T15:04:00.703Z,5020.00
2018-08-02T15:05:53.574Z,5020.00
2018-08-02T15:06:53.439Z,5088.00
2018-08-02T15:08:46.350Z,5264.00
2018-08-02T15:09:46.190Z,5412.00
2018-08-02T15:11:39.018Z,5548.00
2018-08-02T15:12:38.994Z,5548.00
2018-08-02T15:14:32.314Z,5504.00
2018-08-02T15:15:32.207Z,5456.00
2018-08-02T15:17:25.047Z,5112.00
2018-08-02T15:18:24.997Z,4948.00
2018-08-02T15:20:17.847Z,5124.00
2018-08-02T15:21:17.697Z,5760.00
2018-08-02T15:23:11.065Z,5896.00
2018-08-02T15:24:10.964Z,5920.00
2018-08-02T15:26:03.795Z,5804.00
2018-08-02T15:27:03.713Z,5684.00
2018-08-02T15:28:56.673Z,5620.00
2018-08-02T15:29:56.566Z,5592.00
2018-08-02T15:31:49.468Z,5496.00
2018-08-02T15:32:49.341Z,5140.00
2018-08-02T15:34:42.278Z,5256.00
2018-08-02T15:35:42.187Z,5352.00
2018-08-02T15:37:35.017Z,4984.00
2018-08-02T15:38:34.924Z,4468.00
2018-08-02T15:40:27.756Z,4444.00
2018-08-02T15:41:27.678Z,4584.00
2018-08-02T15:43:20.505Z,4992.00
2018-08-02T15:44:20.415Z,4916.00
2018-08-02T15:46:13.247Z,4928.00
2018-08-02T15:47:13.179Z,4952.00
2018-08-02T15:49:06.012Z,4940.00
2018-08-02T15:50:05.921Z,4920.00
2018-08-02T15:51:58.782Z,5024.00
2018-08-02T15:52:58.665Z,5100.00
2018-08-02T15:54:51.496Z,6156.00
2018-08-02T15:55:51.411Z,6200.00
2018-08-02T15:57:44.360Z,6184.00
2018-08-02T15:58:44.259Z,6100.00
2018-08-02T16:00:37.091Z,6012.00
2018-08-02T16:01:37.066Z,6040.00
2018-08-02T16:03:29.860Z,6032.00
2018-08-02T16:04:29.787Z,5964.00
2018-08-02T16:06:22.618Z,5704.00
2018-08-02T16:07:22.551Z,5844.00
2018-08-02T16:09:15.372Z,5608.00
2018-08-02T16:10:15.260Z,5456.00
2018-08-02T16:12:08.105Z,4168.00
2018-08-02T16:13:08.025Z,4140.00
2018-08-02T16:15:00.846Z,4716.00
2018-08-02T16:16:00.759Z,5440.00
2018-08-02T16:17:53.632Z,4276.00
2018-08-02T16:18:53.515Z,5624.00
2018-08-02T16:20:46.343Z,4476.00
2018-08-02T16:21:46.272Z,5036.00
2018-08-02T16:23:39.105Z,5264.00
2018-08-02T16:24:39.015Z,7088.00
2018-08-02T16:26:31.864Z,6432.00
2018-08-02T16:27:31.771Z,6396.00
2018-08-02T16:29:24.615Z,7104.00
2018-08-02T16:30:24.608Z,6744.00
2018-08-02T16:32:17.406Z,6916.00
2018-08-02T16:33:17.273Z,6956.00
2018-08-02T16:35:10.100Z,6912.00
2018-08-02T16:36:10.016Z,6900.00
2018-08-02T16:38:03.027Z,6848.00
2018-08-02T16:39:02.865Z,6864.00
2018-08-02T16:40:55.702Z,5240.00
2018-08-02T16:41:55.621Z,6776.00
2018-08-02T16:43:48.560Z,6800.00
2018-08-02T16:44:48.494Z,6860.00
2018-08-02T16:46:41.420Z,6764.00
2018-08-02T16:47:41.328Z,6720.00
2018-08-02T16:49:34.269Z,6732.00
2018-08-02T16:50:34.194Z,6896.00
2018-08-02T16:52:27.031Z,7336.00
2018-08-02T16:53:26.939Z,7376.00
2018-08-02T16:55:19.847Z,7388.00
2018-08-02T16:56:19.790Z,7388.00
2018-08-02T16:58:12.724Z,7336.00
2018-08-02T16:59:12.627Z,7320.00
2018-08-02T17:01:05.592Z,7388.00
2018-08-02T17:02:05.470Z,7476.00
2018-08-02T17:03:58.433Z,7632.00
2018-08-02T17:04:58.328Z,7672.00
2018-08-02T17:06:51.259Z,7640.00
2018-08-02T17:07:51.188Z,7588.00
2018-08-02T17:09:44.146Z,8496.00
2018-08-02T17:10:44.049Z,18304.00
2018-08-02T17:12:36.976Z,41856.00
2018-08-02T17:13:36.897Z,40832.00
2018-08-02T17:15:29.833Z,41696.00
2018-08-02T17:16:29.767Z,42400.00
2018-08-02T17:18:22.707Z,43424.00
2018-08-02T17:19:22.587Z,43200.00
2018-08-02T17:21:15.562Z,42112.00
2018-08-02T17:22:15.449Z,37056.00
2018-08-02T17:24:08.431Z,42144.00
2018-08-02T17:25:08.308Z,41536.00
2018-08-02T17:27:01.236Z,38976.00
2018-08-02T17:28:01.172Z,37120.00
2018-08-02T17:29:54.597Z,26112.00
2018-08-02T17:30:54.526Z,28512.00
2018-08-02T17:32:47.455Z,27968.00
2018-08-02T17:33:47.370Z,27424.00
2018-08-02T17:35:40.288Z,35808.00
2018-08-02T17:36:40.223Z,35136.00
2018-08-02T17:38:33.152Z,34432.00
2018-08-02T17:39:33.067Z,33696.00
2018-08-02T17:41:25.992Z,31328.00
2018-08-02T17:42:25.923Z,32224.00
2018-08-02T17:44:18.872Z,32128.00
2018-08-02T17:45:18.772Z,30496.00
2018-08-02T17:47:11.720Z,25056.00
2018-08-02T17:48:11.627Z,28640.00
2018-08-02T17:50:04.624Z,27104.00